Time;durP1;ratioP1;P1;durP2;ratioP2;P2;SDS_P1;SDS_P2;PMS_P1;PMS_P2;Temp;Humidity;BMP_temperature;BMP_pressure;BME280_temperature;BME280_humidity;BME280_pressure;Samples;Min_cycle;Max_cycle;Signal;HPM_P1;HPM_P2
2023/12/31 00:01:12;;;;;;;11.27;6.57;;;6.50;99.90;;;;;;5034546;28;20047;-77
2023/12/31 00:03:40;;;;;;;6.40;5.18;;;6.50;99.90;;;;;;5033789;28;20041;-75
2023/12/31 00:06:07;;;;;;;15.30;7.50;;;6.60;99.90;;;;;;5041728;28;20072;-78
2023/12/31 00:08:34;;;;;;;11.05;6.68;;;6.60;99.90;;;;;;5036299;28;20503;-78
2023/12/31 00:11:02;;;;;;;16.73;7.97;;;6.60;99.90;;;;;;5063589;28;20052;-77
2023/12/31 00:13:29;;;;;;;13.95;6.93;;;6.60;99.90;;;;;;5031686;28;20048;-79
2023/12/31 00:15:55;;;;;;;14.55;7.18;;;6.60;99.90;;;;;;5029425;28;20041;-78
2023/12/31 00:18:22;;;;;;;11.10;5.88;;;6.60;99.90;;;;;;5033337;28;20107;-79
2023/12/31 00:20:49;;;;;;;9.52;6.38;;;6.60;99.90;;;;;;5009668;28;20539;-78
2023/12/31 00:23:17;;;;;;;15.88;6.63;;;6.60;99.90;;;;;;5027581;28;20507;-79
2023/12/31 00:25:44;;;;;;;10.48;6.50;;;6.60;99.90;;;;;;5026274;28;20103;-79
2023/12/31 00:28:11;;;;;;;17.23;6.68;;;6.60;99.90;;;;;;5021959;28;20515;-79
2023/12/31 00:30:38;;;;;;;9.15;6.47;;;6.60;99.90;;;;;;4992480;28;20049;-77
2023/12/31 00:33:04;;;;;;;17.75;6.70;;;6.60;99.90;;;;;;4997456;28;20042;-79
2023/12/31 00:35:32;;;;;;;20.90;9.52;;;6.60;99.90;;;;;;5029392;28;20110;-78
2023/12/31 00:37:58;;;;;;;10.00;6.60;;;6.60;99.90;;;;;;5033889;28;20123;-79
2023/12/31 00:40:28;;;;;;;10.73;6.70;;;6.60;99.90;;;;;;5016276;28;20049;-78
2023/12/31 00:42:54;;;;;;;8.70;6.13;;;6.60;99.90;;;;;;5038591;28;20060;-79
2023/12/31 00:45:21;;;;;;;12.85;6.05;;;6.60;99.90;;;;;;5036368;28;20048;-79
2023/12/31 00:47:48;;;;;;;14.20;6.75;;;6.60;99.90;;;;;;5007714;28;20038;-77
2023/12/31 00:50:15;;;;;;;13.95;7.45;;;6.60;99.90;;;;;;5041958;28;20043;-78
2023/12/31 00:52:42;;;;;;;9.55;6.43;;;6.60;99.90;;;;;;5014484;28;20052;-77
2023/12/31 00:55:09;;;;;;;15.13;6.82;;;6.60;99.90;;;;;;5025643;28;20051;-76
2023/12/31 00:57:36;;;;;;;9.38;6.10;;;6.60;99.90;;;;;;5050234;28;20458;-77
2023/12/31 01:00:07;;;;;;;9.65;5.82;;;6.60;99.90;;;;;;5076486;28;20052;-77
2023/12/31 01:02:34;;;;;;;10.55;5.93;;;6.60;99.90;;;;;;5074264;28;20055;-79
2023/12/31 01:05:00;;;;;;;12.43;6.97;;;6.50;99.90;;;;;;5039037;28;20036;-78
2023/12/31 01:07:27;;;;;;;15.20;8.27;;;6.50;99.90;;;;;;5039528;28;20045;-77
2023/12/31 01:09:54;;;;;;;12.38;7.20;;;6.50;99.90;;;;;;5042983;28;20048;-78
2023/12/31 01:12:21;;;;;;;14.57;8.07;;;6.50;99.90;;;;;;5039617;28;20032;-78
2023/12/31 01:14:48;;;;;;;13.48;6.88;;;6.40;99.90;;;;;;5047954;28;20136;-79
2023/12/31 01:17:14;;;;;;;13.85;6.20;;;6.40;99.90;;;;;;5042576;28;20051;-78
2023/12/31 01:19:41;;;;;;;11.25;6.47;;;6.50;99.90;;;;;;5030125;28;20052;-78
2023/12/31 01:22:08;;;;;;;14.18;7.38;;;6.60;99.90;;;;;;5027104;28;20134;-78
2023/12/31 01:24:36;;;;;;;12.95;6.93;;;6.60;99.90;;;;;;5006407;28;20051;-78
2023/12/31 01:27:04;;;;;;;10.57;6.38;;;6.60;99.90;;;;;;5019213;28;20042;-79
2023/12/31 01:29:33;;;;;;;9.90;6.20;;;6.60;99.90;;;;;;5031901;28;20047;-78
2023/12/31 01:31:59;;;;;;;14.80;6.07;;;6.50;99.90;;;;;;5032179;28;20096;-78
2023/12/31 01:34:27;;;;;;;10.18;6.40;;;6.60;99.90;;;;;;5031155;28;20041;-78
2023/12/31 01:36:54;;;;;;;11.35;5.97;;;6.60;99.90;;;;;;5036922;28;20135;-79
2023/12/31 01:39:20;;;;;;;7.45;5.25;;;6.60;99.90;;;;;;5025008;28;20045;-77
2023/12/31 01:41:47;;;;;;;12.00;6.78;;;6.50;99.90;;;;;;5030739;28;20048;-78
2023/12/31 01:44:14;;;;;;;12.32;6.53;;;6.60;99.90;;;;;;5018396;28;20150;-78
2023/12/31 01:46:42;;;;;;;10.27;6.75;;;6.60;99.90;;;;;;5030395;28;20072;-79
2023/12/31 01:49:10;;;;;;;12.05;7.20;;;6.60;99.90;;;;;;5023355;28;20040;-79
2023/12/31 01:51:38;;;;;;;12.07;6.70;;;6.60;99.90;;;;;;5029095;28;20124;-77
2023/12/31 01:54:05;;;;;;;17.70;7.20;;;6.60;99.90;;;;;;5033252;28;20136;-77
2023/12/31 01:56:33;;;;;;;12.20;6.53;;;6.60;99.90;;;;;;5002858;28;20045;-79
2023/12/31 01:59:03;;;;;;;9.48;6.47;;;6.50;99.90;;;;;;5026479;28;20105;-79
2023/12/31 02:01:32;;;;;;;16.10;5.97;;;6.50;99.90;;;;;;5004566;28;20463;-78
2023/12/31 02:04:00;;;;;;;11.32;5.75;;;6.50;99.90;;;;;;5032936;28;20096;-79
2023/12/31 02:06:27;;;;;;;9.32;5.80;;;6.60;99.90;;;;;;5033651;28;20053;-77
2023/12/31 02:08:53;;;;;;;10.32;6.13;;;6.70;99.90;;;;;;5028022;28;20049;-77
2023/12/31 02:11:20;;;;;;;11.35;6.40;;;6.70;99.90;;;;;;5050035;28;20098;-79
2023/12/31 02:13:47;;;;;;;10.57;5.82;;;6.80;99.90;;;;;;5029473;28;20056;-76
2023/12/31 02:16:15;;;;;;;8.48;5.68;;;6.80;99.90;;;;;;5026415;28;20060;-77
2023/12/31 02:18:43;;;;;;;12.82;7.38;;;6.80;99.90;;;;;;5038411;28;20104;-78
2023/12/31 02:21:13;;;;;;;9.23;6.15;;;6.80;99.90;;;;;;5019772;28;20050;-77
2023/12/31 02:23:40;;;;;;;10.38;6.40;;;6.80;99.90;;;;;;5031829;28;20230;-78
2023/12/31 02:26:09;;;;;;;9.40;6.03;;;6.90;99.90;;;;;;5029052;28;20049;-78
2023/12/31 02:28:36;;;;;;;9.18;5.80;;;6.90;99.90;;;;;;5010076;28;20115;-79
2023/12/31 02:31:06;;;;;;;8.20;4.57;;;6.90;99.90;;;;;;4987664;28;20068;-79
2023/12/31 02:33:34;;;;;;;9.68;5.60;;;7.00;99.90;;;;;;4995345;28;20036;-79
2023/12/31 02:36:01;;;;;;;9.93;5.47;;;7.00;99.90;;;;;;5031684;28;20115;-78
2023/12/31 02:38:28;;;;;;;9.68;6.63;;;7.00;99.90;;;;;;5039014;28;20131;-79
2023/12/31 02:40:55;;;;;;;11.13;6.93;;;7.10;99.90;;;;;;5023960;28;20056;-77
2023/12/31 02:43:21;;;;;;;8.45;6.50;;;7.10;99.90;;;;;;5037973;28;20052;-78
2023/12/31 02:45:48;;;;;;;10.48;7.05;;;7.10;99.90;;;;;;5010564;28;20056;-78
2023/12/31 02:48:15;;;;;;;13.63;6.97;;;7.10;99.90;;;;;;5028064;28;20033;-78
2023/12/31 02:50:42;;;;;;;7.45;6.18;;;7.10;99.90;;;;;;5014690;28;20044;-78
2023/12/31 02:53:08;;;;;;;8.98;7.10;;;7.10;99.90;;;;;;5027643;28;20100;-77
2023/12/31 02:55:36;;;;;;;12.85;7.32;;;7.20;99.90;;;;;;5001877;28;20045;-79
2023/12/31 02:58:03;;;;;;;14.23;7.28;;;7.20;99.90;;;;;;5022065;28;20068;-79
2023/12/31 03:00:30;;;;;;;8.73;7.30;;;7.20;99.90;;;;;;5034523;28;20060;-78
2023/12/31 03:02:57;;;;;;;10.68;7.15;;;7.20;99.90;;;;;;5029756;28;20095;-77
2023/12/31 03:05:24;;;;;;;9.93;6.82;;;7.20;99.90;;;;;;5025806;28;20060;-77
2023/12/31 03:07:52;;;;;;;9.95;7.60;;;7.20;99.90;;;;;;5033494;28;20427;-77
2023/12/31 03:10:34;;;;;;;13.23;8.40;;;7.20;99.90;;;;;;5020908;28;20041;-77
2023/12/31 03:13:03;;;;;;;10.23;7.05;;;7.30;99.90;;;;;;5028432;28;20041;-78
2023/12/31 03:15:30;;;;;;;9.45;6.90;;;7.30;99.90;;;;;;5034983;28;20041;-78
2023/12/31 03:17:57;;;;;;;12.10;8.43;;;7.30;99.90;;;;;;5040982;28;20051;-77
2023/12/31 03:20:24;;;;;;;10.77;8.35;;;7.30;99.90;;;;;;5000936;28;20072;-78
2023/12/31 03:22:51;;;;;;;11.40;8.02;;;7.30;99.90;;;;;;5031377;28;20045;-78
2023/12/31 03:25:18;;;;;;;11.75;7.85;;;7.20;99.90;;;;;;5009702;28;20053;-79
2023/12/31 03:27:45;;;;;;;8.57;7.40;;;7.20;99.90;;;;;;5034563;28;20124;-78
2023/12/31 03:30:12;;;;;;;7.82;7.03;;;7.20;99.90;;;;;;5029976;28;21581;-79
2023/12/31 03:32:40;;;;;;;10.57;7.65;;;7.20;99.90;;;;;;5029542;28;20060;-78
2023/12/31 03:35:08;;;;;;;11.23;8.43;;;7.20;99.90;;;;;;5022515;28;20134;-79
2023/12/31 03:37:35;;;;;;;12.45;8.05;;;7.20;99.90;;;;;;5014819;28;20124;-79
2023/12/31 03:40:03;;;;;;;10.85;7.40;;;7.20;99.90;;;;;;5032554;28;20052;-77
2023/12/31 03:42:30;;;;;;;12.00;8.50;;;7.20;99.90;;;;;;5026688;28;20056;-78
2023/12/31 03:44:57;;;;;;;9.30;8.05;;;7.20;99.90;;;;;;5030102;28;20037;-77
2023/12/31 03:47:24;;;;;;;12.73;7.40;;;7.20;99.90;;;;;;5029741;28;20045;-73
2023/12/31 03:49:51;;;;;;;12.27;8.00;;;7.20;99.90;;;;;;5033698;28;20571;-78
2023/12/31 03:52:17;;;;;;;12.98;7.93;;;7.20;99.90;;;;;;5025536;28;20539;-77
2023/12/31 03:54:44;;;;;;;13.60;7.82;;;7.30;99.90;;;;;;5026425;28;20043;-78
2023/12/31 03:57:12;;;;;;;12.00;8.18;;;7.30;99.90;;;;;;5022657;28;20566;-77
2023/12/31 03:59:39;;;;;;;13.90;8.43;;;7.40;99.90;;;;;;5000078;28;20630;-78
2023/12/31 04:02:05;;;;;;;11.13;7.60;;;7.30;99.90;;;;;;5019012;28;20068;-79
2023/12/31 04:04:32;;;;;;;11.00;8.30;;;7.30;99.90;;;;;;5033063;28;20040;-78
2023/12/31 04:06:59;;;;;;;10.95;8.07;;;7.30;99.90;;;;;;5020124;28;20068;-79
2023/12/31 04:09:26;;;;;;;9.60;8.13;;;7.30;99.90;;;;;;5017382;28;20053;-79
2023/12/31 04:11:54;;;;;;;12.68;9.23;;;7.30;99.90;;;;;;5023384;28;20128;-80
2023/12/31 04:14:21;;;;;;;15.98;7.80;;;7.30;99.90;;;;;;5012202;28;20040;-79
2023/12/31 04:16:48;;;;;;;13.48;8.18;;;7.30;99.90;;;;;;5027099;28;20049;-80
2023/12/31 04:19:15;;;;;;;10.85;8.13;;;7.30;99.90;;;;;;5030607;28;20065;-78
2023/12/31 04:21:42;;;;;;;12.55;7.63;;;7.30;99.90;;;;;;4998635;28;20048;-79
2023/12/31 04:24:10;;;;;;;12.18;8.68;;;7.30;99.90;;;;;;5004969;28;20037;-79
2023/12/31 04:26:36;;;;;;;11.73;8.68;;;7.30;99.90;;;;;;5019569;28;20600;-77
2023/12/31 04:29:03;;;;;;;12.38;7.53;;;7.30;99.90;;;;;;5008839;28;20764;-77
2023/12/31 04:31:30;;;;;;;12.35;7.75;;;7.30;99.90;;;;;;5033454;28;20047;-77
2023/12/31 04:33:57;;;;;;;10.38;5.78;;;7.30;99.90;;;;;;5075539;28;20037;-77
2023/12/31 04:36:24;;;;;;;11.40;7.85;;;7.30;99.90;;;;;;5055486;28;20075;-77
2023/12/31 04:38:51;;;;;;;13.73;6.82;;;7.30;99.90;;;;;;5039295;28;20128;-78
2023/12/31 04:41:22;;;;;;;11.85;8.00;;;7.30;99.90;;;;;;5021098;28;20052;-78
2023/12/31 04:43:49;;;;;;;18.08;8.75;;;7.30;99.90;;;;;;5029527;28;20052;-78
2023/12/31 04:46:20;;;;;;;12.30;7.53;;;7.30;99.90;;;;;;5023480;28;20060;-76
2023/12/31 04:48:47;;;;;;;10.20;7.45;;;7.20;99.90;;;;;;5047255;28;20045;-77
2023/12/31 04:51:28;;;;;;;11.60;7.53;;;7.20;99.90;;;;;;5008225;28;20065;-77
2023/12/31 04:53:55;;;;;;;12.15;8.55;;;7.20;99.90;;;;;;5019786;28;20133;-77
2023/12/31 04:56:24;;;;;;;10.48;7.72;;;7.30;99.90;;;;;;5025935;28;20245;-77
2023/12/31 04:58:53;;;;;;;11.70;7.63;;;7.20;99.90;;;;;;5031123;28;20048;-77
2023/12/31 05:01:20;;;;;;;11.48;8.20;;;7.20;99.90;;;;;;5025962;28;20602;-77
2023/12/31 05:03:48;;;;;;;10.45;7.95;;;7.20;99.90;;;;;;5010270;28;20065;-78
2023/12/31 05:06:15;;;;;;;9.98;8.50;;;7.20;99.90;;;;;;5018879;28;20049;-77
2023/12/31 05:08:44;;;;;;;11.30;8.02;;;7.20;99.90;;;;;;5029970;28;20044;-79
2023/12/31 05:11:12;;;;;;;9.52;7.40;;;7.20;99.90;;;;;;5000244;28;20038;-77
2023/12/31 05:13:40;;;;;;;10.63;7.55;;;7.20;99.90;;;;;;5027770;28;20041;-78
2023/12/31 05:16:10;;;;;;;13.40;7.53;;;7.20;99.90;;;;;;5021956;28;20041;-78
2023/12/31 05:18:37;;;;;;;12.43;8.20;;;7.30;99.90;;;;;;5020087;28;20064;-77
2023/12/31 05:21:04;;;;;;;9.25;6.90;;;7.30;99.90;;;;;;5005434;28;20709;-77
2023/12/31 05:23:31;;;;;;;9.32;7.53;;;7.30;99.90;;;;;;5025208;28;20530;-77
2023/12/31 05:25:58;;;;;;;7.90;7.10;;;7.20;99.90;;;;;;5025548;28;20049;-77
2023/12/31 05:28:25;;;;;;;10.10;6.75;;;7.30;99.90;;;;;;5013611;28;20045;-79
2023/12/31 05:30:51;;;;;;;9.85;7.47;;;7.30;99.90;;;;;;5028014;28;20037;-78
2023/12/31 05:33:18;;;;;;;8.32;7.43;;;7.40;99.90;;;;;;5033542;28;20438;-79
2023/12/31 05:35:45;;;;;;;10.00;7.50;;;7.40;99.90;;;;;;5022339;28;20048;-78
2023/12/31 05:38:13;;;;;;;10.88;7.30;;;7.40;99.90;;;;;;5025491;28;20041;-78
2023/12/31 05:40:40;;;;;;;10.63;6.72;;;7.40;99.90;;;;;;5030174;28;20131;-78
2023/12/31 05:43:08;;;;;;;8.45;7.40;;;7.40;99.90;;;;;;5013237;28;20471;-78
2023/12/31 05:45:34;;;;;;;10.15;6.68;;;7.30;99.90;;;;;;5011764;28;20049;-77
2023/12/31 05:48:01;;;;;;;8.70;7.50;;;7.30;99.90;;;;;;5008740;28;20037;-77
2023/12/31 05:50:28;;;;;;;9.32;6.88;;;7.30;99.90;;;;;;5023121;28;20049;-78
2023/12/31 05:52:55;;;;;;;7.68;5.95;;;7.30;99.90;;;;;;5023799;28;20045;-78
2023/12/31 05:55:23;;;;;;;9.48;7.32;;;7.30;99.90;;;;;;5024112;28;20037;-78
2023/12/31 05:57:50;;;;;;;11.55;6.95;;;7.30;99.90;;;;;;5022753;28;20119;-79
2023/12/31 06:00:17;;;;;;;10.63;7.18;;;7.20;99.90;;;;;;5003085;28;20041;-78
2023/12/31 06:02:44;;;;;;;7.60;6.45;;;7.20;99.90;;;;;;5022611;28;20048;-77
2023/12/31 06:05:11;;;;;;;10.20;6.43;;;7.20;99.90;;;;;;5014136;28;20082;-76
2023/12/31 06:07:37;;;;;;;12.20;6.32;;;7.20;99.90;;;;;;5007891;28;20056;-80
2023/12/31 06:10:05;;;;;;;7.30;5.40;;;7.20;99.90;;;;;;5010816;28;20065;-76
2023/12/31 06:12:32;;;;;;;9.52;6.00;;;7.20;99.90;;;;;;5032485;28;20309;-77
2023/12/31 06:15:06;;;;;;;15.35;6.10;;;7.20;99.90;;;;;;5024041;28;20041;-78
2023/12/31 06:17:33;;;;;;;10.07;6.50;;;7.20;99.90;;;;;;5031766;28;20048;-77
2023/12/31 06:20:01;;;;;;;6.90;6.20;;;7.30;99.90;;;;;;5014951;28;20632;-77
2023/12/31 06:22:28;;;;;;;12.25;6.80;;;7.20;99.90;;;;;;5006519;28;20053;-76
2023/12/31 06:24:54;;;;;;;8.30;7.40;;;7.20;99.90;;;;;;4991732;28;20056;-77
2023/12/31 06:27:22;;;;;;;9.15;6.85;;;7.20;99.90;;;;;;5027638;28;20055;-76
2023/12/31 06:29:50;;;;;;;8.45;6.68;;;7.30;99.90;;;;;;5030905;28;20318;-78
2023/12/31 06:32:17;;;;;;;6.90;6.30;;;7.30;99.90;;;;;;5006300;28;20680;-78
2023/12/31 06:34:44;;;;;;;5.88;5.47;;;7.20;99.90;;;;;;5028125;28;20249;-78
2023/12/31 06:37:12;;;;;;;7.47;6.88;;;7.20;99.90;;;;;;5020707;28;20450;-78
2023/12/31 06:39:46;;;;;;;11.30;7.28;;;7.10;99.90;;;;;;5031122;28;20043;-78
2023/12/31 06:42:13;;;;;;;8.05;6.68;;;7.10;99.90;;;;;;5055833;28;20048;-77
2023/12/31 06:44:41;;;;;;;5.65;5.10;;;7.10;99.90;;;;;;5010370;28;20060;-77
2023/12/31 06:47:08;;;;;;;7.18;5.57;;;7.10;99.90;;;;;;5027273;28;20462;-78
2023/12/31 06:49:35;;;;;;;7.43;6.72;;;7.00;99.90;;;;;;4998872;28;20046;-77
2023/12/31 06:52:02;;;;;;;6.05;5.45;;;7.00;99.90;;;;;;5015637;28;20060;-78
2023/12/31 06:54:29;;;;;;;5.95;5.43;;;7.00;99.90;;;;;;4999285;28;20053;-77
2023/12/31 06:56:56;;;;;;;7.25;6.53;;;7.00;99.90;;;;;;5023857;28;20040;-78
2023/12/31 06:59:23;;;;;;;7.72;6.28;;;7.00;99.90;;;;;;5010343;28;20506;-78
2023/12/31 07:01:50;;;;;;;8.55;6.13;;;7.00;99.90;;;;;;5026505;28;20115;-78
2023/12/31 07:04:17;;;;;;;7.15;6.47;;;7.00;99.90;;;;;;5016585;28;20053;-78
2023/12/31 07:06:43;;;;;;;7.07;6.47;;;7.00;99.90;;;;;;5026253;28;20041;-77
2023/12/31 07:09:11;;;;;;;7.53;6.28;;;7.10;99.90;;;;;;5025883;28;20068;-75
2023/12/31 07:11:38;;;;;;;13.07;9.40;;;7.10;99.90;;;;;;5030743;28;20048;-79
2023/12/31 07:14:05;;;;;;;11.07;9.23;;;7.10;99.90;;;;;;5035643;28;20052;-79
2023/12/31 07:16:31;;;;;;;9.18;8.27;;;7.10;99.90;;;;;;5015715;28;20048;-77
2023/12/31 07:18:58;;;;;;;9.63;8.50;;;7.10;99.90;;;;;;5047023;28;20053;-77
2023/12/31 07:21:25;;;;;;;9.13;8.30;;;7.10;99.90;;;;;;5023838;28;20052;-77
2023/12/31 07:23:52;;;;;;;9.98;8.50;;;7.20;99.90;;;;;;5001286;28;20057;-79
2023/12/31 07:26:29;;;;;;;8.57;7.88;;;7.20;99.90;;;;;;5008974;28;20077;-79
2023/12/31 07:28:56;;;;;;;14.15;10.30;;;7.20;99.90;;;;;;5007741;28;20033;-78
2023/12/31 07:31:37;;;;;;;9.50;8.60;;;7.20;99.90;;;;;;5021511;28;20044;-78
2023/12/31 07:34:05;;;;;;;9.50;8.60;;;7.20;99.90;;;;;;5021789;28;20037;-76
2023/12/31 07:36:32;;;;;;;9.15;8.45;;;7.20;99.90;;;;;;5044099;28;20936;-77
2023/12/31 07:38:59;;;;;;;11.70;10.57;;;7.20;99.90;;;;;;5019213;28;20564;-78
2023/12/31 07:41:26;;;;;;;11.80;10.70;;;7.30;99.90;;;;;;5024681;28;20138;-77
2023/12/31 07:43:54;;;;;;;11.38;10.38;;;7.30;99.90;;;;;;5027910;28;20079;-78
2023/12/31 07:46:21;;;;;;;12.30;10.50;;;7.20;99.90;;;;;;5003232;28;20053;-77
2023/12/31 07:48:48;;;;;;;11.50;10.50;;;7.20;99.90;;;;;;5019144;28;20040;-76
2023/12/31 07:51:15;;;;;;;12.50;11.48;;;7.20;99.90;;;;;;5031863;28;20543;-78
2023/12/31 07:53:41;;;;;;;11.77;10.88;;;7.10;99.90;;;;;;5027901;28;20045;-76
2023/12/31 07:56:08;;;;;;;11.40;10.68;;;7.10;99.90;;;;;;5025769;28;20104;-77
2023/12/31 07:58:35;;;;;;;12.50;11.30;;;7.10;99.90;;;;;;5030384;28;20060;-79
2023/12/31 08:01:02;;;;;;;11.35;10.50;;;7.10;99.90;;;;;;5022693;28;20049;-77
2023/12/31 08:03:29;;;;;;;10.88;10.00;;;7.10;99.90;;;;;;5029648;28;20136;-77
2023/12/31 08:05:57;;;;;;;12.40;11.40;;;7.10;99.90;;;;;;5048897;28;20299;-77
2023/12/31 08:08:24;;;;;;;12.88;11.73;;;7.20;99.90;;;;;;5058125;28;20041;-76
2023/12/31 08:10:52;;;;;;;12.43;11.18;;;7.30;99.90;;;;;;5043079;28;20045;-77
2023/12/31 08:13:19;;;;;;;12.07;11.05;;;7.30;99.90;;;;;;5020759;28;20084;-77
2023/12/31 08:15:46;;;;;;;11.32;10.40;;;7.30;99.90;;;;;;5008096;28;20049;-79
2023/12/31 08:18:14;;;;;;;10.68;10.00;;;7.30;99.90;;;;;;5023424;28;20116;-80
2023/12/31 08:20:41;;;;;;;12.20;11.30;;;7.30;99.90;;;;;;5026792;28;20060;-78
2023/12/31 08:23:07;;;;;;;11.45;10.75;;;7.30;99.90;;;;;;5023361;28;20069;-79
2023/12/31 08:25:34;;;;;;;9.40;8.80;;;7.20;99.90;;;;;;5021423;28;21514;-77
2023/12/31 08:28:01;;;;;;;10.55;9.80;;;7.20;99.90;;;;;;5013196;28;20044;-77
2023/12/31 08:30:28;;;;;;;10.45;9.52;;;7.10;99.90;;;;;;5020421;28;20061;-76
2023/12/31 08:32:55;;;;;;;11.38;10.57;;;7.10;99.90;;;;;;5000817;28;20052;-77
2023/12/31 08:35:23;;;;;;;11.80;10.85;;;7.10;99.90;;;;;;5016167;28;20041;-77
2023/12/31 08:37:50;;;;;;;11.13;10.32;;;7.10;99.90;;;;;;5021045;28;20112;-78
2023/12/31 08:40:19;;;;;;;14.32;13.05;;;7.10;99.90;;;;;;5029506;28;20050;-78
2023/12/31 08:42:46;;;;;;;13.85;12.75;;;7.10;99.90;;;;;;5029743;28;20052;-79
2023/12/31 08:45:13;;;;;;;18.00;16.80;;;7.10;99.90;;;;;;5014429;28;20045;-76
2023/12/31 08:47:40;;;;;;;16.92;15.80;;;7.20;99.90;;;;;;5007078;28;20086;-76
2023/12/31 08:50:09;;;;;;;17.65;16.42;;;7.10;99.90;;;;;;5008236;28;20045;-77
2023/12/31 08:52:42;;;;;;;18.33;17.23;;;7.10;99.90;;;;;;5010693;28;20103;-77
2023/12/31 08:55:09;;;;;;;17.40;16.20;;;7.10;99.90;;;;;;5019195;28;20673;-78
2023/12/31 08:57:36;;;;;;;19.38;17.88;;;7.00;99.90;;;;;;5002598;28;21073;-77
2023/12/31 09:00:04;;;;;;;19.58;18.13;;;7.10;99.90;;;;;;5027746;28;20037;-76
2023/12/31 09:02:31;;;;;;;17.08;16.05;;;7.00;99.90;;;;;;5020714;28;20045;-76
2023/12/31 09:04:57;;;;;;;18.67;17.27;;;7.00;99.90;;;;;;5019509;28;20046;-77
2023/12/31 09:07:25;;;;;;;17.92;16.70;;;7.00;99.90;;;;;;5012569;28;20055;-78
2023/12/31 09:09:52;;;;;;;14.88;13.68;;;7.00;99.90;;;;;;5009467;28;20049;-77
2023/12/31 09:12:20;;;;;;;13.73;12.35;;;7.00;99.90;;;;;;5020179;28;20033;-75
2023/12/31 09:14:46;;;;;;;14.10;12.95;;;7.00;99.90;;;;;;5030371;28;20060;-79
2023/12/31 09:17:13;;;;;;;13.30;12.15;;;7.00;99.90;;;;;;5037793;28;20069;-77
2023/12/31 09:19:40;;;;;;;15.10;13.50;;;7.00;99.90;;;;;;5003415;28;20148;-78
2023/12/31 09:22:08;;;;;;;17.95;16.58;;;7.00;99.90;;;;;;5018810;28;20052;-76
2023/12/31 09:24:35;;;;;;;17.27;15.73;;;7.00;99.90;;;;;;5028405;28;20049;-78
2023/12/31 09:27:03;;;;;;;15.70;14.70;;;7.00;99.90;;;;;;5045189;28;20048;-77
2023/12/31 09:29:30;;;;;;;19.50;17.75;;;7.00;99.90;;;;;;5030842;28;20060;-77
2023/12/31 09:31:57;;;;;;;19.17;17.27;;;7.10;99.90;;;;;;5032606;28;20080;-77
2023/12/31 09:34:24;;;;;;;15.60;14.43;;;7.10;99.90;;;;;;5024293;28;20618;-76
2023/12/31 09:36:51;;;;;;;16.35;15.00;;;7.10;99.90;;;;;;5035767;28;20060;-77
2023/12/31 09:39:18;;;;;;;16.27;15.05;;;7.10;99.90;;;;;;5027067;28;20271;-77
2023/12/31 09:41:51;;;;;;;15.80;14.80;;;7.20;99.90;;;;;;5039185;28;20160;-77
2023/12/31 09:44:19;;;;;;;17.42;15.85;;;7.30;99.90;;;;;;5033679;28;20083;-77
2023/12/31 09:47:06;;;;;;;16.10;15.10;;;7.40;99.90;;;;;;5036663;28;20055;-77
2023/12/31 09:49:41;;;;;;;17.13;16.05;;;7.60;99.90;;;;;;5033135;28;20073;-78
2023/12/31 09:52:09;;;;;;;18.60;17.50;;;7.70;99.90;;;;;;5031958;28;20044;-78
2023/12/31 09:54:43;;;;;;;19.20;18.08;;;7.80;99.90;;;;;;5062700;28;20452;-78
2023/12/31 09:57:12;;;;;;;18.65;17.52;;;7.90;99.90;;;;;;5032325;28;20064;-77
2023/12/31 09:59:46;;;;;;;20.63;19.30;;;7.90;99.90;;;;;;5019690;28;20061;-77
2023/12/31 10:02:23;;;;;;;20.40;19.20;;;7.90;99.90;;;;;;5014713;28;20048;-78
2023/12/31 10:04:53;;;;;;;20.40;19.08;;;7.90;99.90;;;;;;5029911;28;20936;-77
2023/12/31 10:07:22;;;;;;;20.27;19.08;;;8.00;99.90;;;;;;5027694;28;20049;-76
2023/12/31 10:09:50;;;;;;;22.42;20.98;;;8.00;99.90;;;;;;5030405;28;20136;-77
2023/12/31 10:12:17;;;;;;;21.45;20.15;;;8.10;99.90;;;;;;5029312;28;20037;-77
2023/12/31 10:14:44;;;;;;;22.45;20.85;;;8.20;99.90;;;;;;5022860;28;20511;-79
2023/12/31 10:17:11;;;;;;;22.98;21.45;;;8.20;99.90;;;;;;5063186;28;20041;-76
2023/12/31 10:19:40;;;;;;;22.70;21.05;;;8.30;99.90;;;;;;5023207;28;20813;-76
2023/12/31 10:22:10;;;;;;;20.80;19.58;;;8.30;99.90;;;;;;5029567;28;20041;-78
2023/12/31 10:24:37;;;;;;;21.85;20.63;;;8.30;99.90;;;;;;5021089;28;20144;-77
2023/12/31 10:27:05;;;;;;;19.05;18.05;;;8.30;99.90;;;;;;5033407;28;20064;-79
2023/12/31 10:29:32;;;;;;;21.00;19.50;;;8.30;99.90;;;;;;5030514;28;20064;-79
2023/12/31 10:32:00;;;;;;;21.77;20.40;;;8.30;99.90;;;;;;5016671;28;20034;-77
2023/12/31 10:34:27;;;;;;;19.83;18.58;;;8.30;99.90;;;;;;5026716;28;20049;-78
2023/12/31 10:37:03;;;;;;;19.10;17.90;;;8.30;99.90;;;;;;5022370;28;20523;-79
2023/12/31 10:39:33;;;;;;;19.50;18.40;;;8.30;99.90;;;;;;5023240;28;20045;-79
2023/12/31 10:42:05;;;;;;;18.98;17.98;;;8.30;99.90;;;;;;5008212;28;20197;-77
2023/12/31 10:44:34;;;;;;;19.02;17.75;;;8.30;99.90;;;;;;5006347;28;20081;-76
2023/12/31 10:47:09;;;;;;;19.42;18.15;;;8.30;99.90;;;;;;5021183;28;20046;-76
2023/12/31 10:49:43;;;;;;;19.60;18.60;;;8.30;99.90;;;;;;5029987;28;20595;-76
2023/12/31 10:52:14;;;;;;;19.13;18.02;;;8.30;99.90;;;;;;5030215;28;20037;-78
2023/12/31 10:54:47;;;;;;;20.45;19.05;;;8.20;99.90;;;;;;5008587;28;20045;-79
2023/12/31 10:57:16;;;;;;;19.50;18.40;;;8.30;99.90;;;;;;5033555;28;20037;-76
2023/12/31 10:59:48;;;;;;;18.75;17.75;;;8.30;99.90;;;;;;5017935;28;20060;-77
2023/12/31 11:02:18;;;;;;;21.90;20.13;;;8.30;99.90;;;;;;5026706;28;20057;-76
2023/12/31 11:04:46;;;;;;;20.65;19.48;;;8.30;99.90;;;;;;5025221;28;20056;-76
2023/12/31 11:07:18;;;;;;;20.17;19.17;;;8.30;99.90;;;;;;5021103;28;20732;-76
2023/12/31 11:09:47;;;;;;;22.20;20.65;;;8.30;99.90;;;;;;5029341;28;20056;-76
2023/12/31 11:12:15;;;;;;;22.63;21.08;;;8.30;99.90;;;;;;5029213;28;20076;-77
2023/12/31 11:14:48;;;;;;;24.85;22.80;;;8.40;99.90;;;;;;5035381;28;20060;-76
2023/12/31 11:17:53;;;;;;;22.73;21.42;;;8.40;99.90;;;;;;5040987;28;20049;-77
2023/12/31 11:20:54;;;;;;;25.42;23.63;;;8.40;99.90;;;;;;5031694;28;20065;-77
2023/12/31 11:23:41;;;;;;;22.35;21.15;;;8.40;99.90;;;;;;5042828;28;20267;-75
2023/12/31 11:26:12;;;;;;;24.83;23.13;;;8.50;99.90;;;;;;5047642;28;20038;-75
2023/12/31 11:28:50;;;;;;;22.33;20.77;;;8.50;99.90;;;;;;5056258;28;20033;-76
2023/12/31 11:31:20;;;;;;;26.20;24.45;;;8.50;99.90;;;;;;5059528;28;20044;-76
2023/12/31 11:33:47;;;;;;;23.67;22.33;;;8.60;99.90;;;;;;5049708;28;20053;-76
2023/12/31 11:36:16;;;;;;;25.05;23.65;;;8.60;99.90;;;;;;5056468;28;20037;-77
2023/12/31 11:39:00;;;;;;;24.42;23.10;;;8.60;99.90;;;;;;5034676;28;20203;-76
2023/12/31 11:41:39;;;;;;;24.40;23.05;;;8.70;99.90;;;;;;5053712;28;20037;-76
2023/12/31 11:44:06;;;;;;;24.38;23.10;;;8.70;99.90;;;;;;5074505;28;20036;-76
2023/12/31 11:46:42;;;;;;;22.35;21.15;;;8.70;99.90;;;;;;5046882;28;20032;-76
2023/12/31 11:49:10;;;;;;;23.95;22.25;;;8.80;99.90;;;;;;5035579;28;20045;-79
2023/12/31 11:52:01;;;;;;;22.98;21.58;;;8.80;99.90;;;;;;5026940;28;20531;-77
2023/12/31 11:54:35;;;;;;;20.33;19.20;;;8.90;99.90;;;;;;5031071;28;20054;-76
2023/12/31 11:57:03;;;;;;;26.17;23.88;;;9.00;99.90;;;;;;5032079;28;20064;-78
2023/12/31 11:59:34;;;;;;;29.52;26.38;;;9.10;99.90;;;;;;5028105;28;20057;-76
2023/12/31 12:02:03;;;;;;;21.70;20.40;;;9.30;99.90;;;;;;5044160;28;20071;-77
2023/12/31 12:04:30;;;;;;;21.95;20.55;;;9.50;99.90;;;;;;5025964;28;20531;-77
2023/12/31 12:06:57;;;;;;;22.98;21.58;;;9.70;99.90;;;;;;5050186;28;20051;-77
2023/12/31 12:09:28;;;;;;;23.05;21.63;;;9.70;99.90;;;;;;5042751;28;20048;-78
2023/12/31 12:12:00;;;;;;;23.05;21.65;;;9.90;99.90;;;;;;5031406;28;20045;-75
2023/12/31 12:14:28;;;;;;;22.50;21.20;;;9.90;99.90;;;;;;5043118;28;20052;-76
2023/12/31 12:16:55;;;;;;;29.77;27.27;;;9.80;99.90;;;;;;5029262;28;20037;-77
2023/12/31 12:19:23;;;;;;;25.85;24.08;;;9.70;99.90;;;;;;5029821;28;20049;-77
2023/12/31 12:21:50;;;;;;;23.27;21.65;;;9.60;99.90;;;;;;5034889;28;20071;-77
2023/12/31 12:24:18;;;;;;;24.50;22.80;;;9.50;99.90;;;;;;5021174;28;20520;-76
2023/12/31 12:26:48;;;;;;;23.30;21.83;;;9.50;99.90;;;;;;5024886;28;20052;-77
2023/12/31 12:29:16;;;;;;;23.92;22.42;;;9.40;99.90;;;;;;5025992;28;20164;-76
2023/12/31 12:31:49;;;;;;;22.90;21.50;;;9.40;99.90;;;;;;4982408;28;20037;-77
2023/12/31 12:34:16;;;;;;;23.63;22.17;;;9.40;99.90;;;;;;5042841;28;20549;-78
2023/12/31 12:36:48;;;;;;;21.52;20.33;;;9.40;99.90;;;;;;5020386;28;20041;-77
2023/12/31 12:39:22;;;;;;;22.05;20.70;;;9.40;99.90;;;;;;5038427;28;20052;-78
2023/12/31 12:41:50;;;;;;;23.45;22.02;;;9.40;99.90;;;;;;5028520;28;20048;-77
2023/12/31 12:44:18;;;;;;;24.52;22.92;;;9.40;99.90;;;;;;5030542;28;20046;-78
2023/12/31 12:46:46;;;;;;;23.98;22.58;;;9.30;99.90;;;;;;5030489;28;20052;-78
2023/12/31 12:49:13;;;;;;;27.73;25.77;;;9.30;99.90;;;;;;5050920;28;20699;-77
2023/12/31 12:51:42;;;;;;;25.17;23.58;;;9.30;99.90;;;;;;5042409;28;20131;-77